sensor_id;sensor_type;location;lat;lon;timestamp;P1;durP1;ratioP1;P2;durP2;ratioP2
72771;SDS011;60894;42.544;1.516;2022-12-18T00:00:58;8.57;;;2.95;;
72771;SDS011;60894;42.544;1.516;2022-12-18T00:03:28;8.20;;;3.22;;
72771;SDS011;60894;42.544;1.516;2022-12-18T00:05:56;13.10;;;4.10;;
72771;SDS011;60894;42.544;1.516;2022-12-18T00:08:23;10.02;;;3.30;;
72771;SDS011;60894;42.544;1.516;2022-12-18T00:10:50;9.98;;;3.92;;
72771;SDS011;60894;42.544;1.516;2022-12-18T00:13:17;8.40;;;2.67;;
72771;SDS011;60894;42.544;1.516;2022-12-18T00:15:44;8.70;;;4.00;;
72771;SDS011;60894;42.544;1.516;2022-12-18T00:18:11;7.77;;;2.87;;
72771;SDS011;60894;42.544;1.516;2022-12-18T00:20:39;9.18;;;3.10;;
72771;SDS011;60894;42.544;1.516;2022-12-18T00:23:07;10.23;;;3.03;;
72771;SDS011;60894;42.544;1.516;2022-12-18T00:25:37;8.60;;;3.10;;
72771;SDS011;60894;42.544;1.516;2022-12-18T00:28:04;10.13;;;3.25;;
72771;SDS011;60894;42.544;1.516;2022-12-18T00:30:31;8.93;;;3.03;;
72771;SDS011;60894;42.544;1.516;2022-12-18T00:32:58;8.20;;;2.92;;
72771;SDS011;60894;42.544;1.516;2022-12-18T00:35:26;8.85;;;2.83;;
72771;SDS011;60894;42.544;1.516;2022-12-18T00:37:53;8.07;;;2.85;;
72771;SDS011;60894;42.544;1.516;2022-12-18T00:40:21;6.93;;;2.58;;
72771;SDS011;60894;42.544;1.516;2022-12-18T00:42:49;8.57;;;2.60;;
72771;SDS011;60894;42.544;1.516;2022-12-18T00:45:21;7.40;;;2.63;;
72771;SDS011;60894;42.544;1.516;2022-12-18T00:47:50;6.85;;;2.28;;
72771;SDS011;60894;42.544;1.516;2022-12-18T00:50:17;6.68;;;2.45;;
72771;SDS011;60894;42.544;1.516;2022-12-18T00:52:44;8.82;;;2.30;;
72771;SDS011;60894;42.544;1.516;2022-12-18T00:55:11;8.33;;;2.40;;
72771;SDS011;60894;42.544;1.516;2022-12-18T00:57:40;6.68;;;2.17;;
72771;SDS011;60894;42.544;1.516;2022-12-18T01:00:08;7.15;;;2.30;;
72771;SDS011;60894;42.544;1.516;2022-12-18T01:02:37;5.97;;;2.15;;
72771;SDS011;60894;42.544;1.516;2022-12-18T01:05:04;7.47;;;2.17;;
72771;SDS011;60894;42.544;1.516;2022-12-18T01:07:32;6.73;;;2.10;;
72771;SDS011;60894;42.544;1.516;2022-12-18T01:09:59;7.65;;;2.50;;
72771;SDS011;60894;42.544;1.516;2022-12-18T01:12:26;8.48;;;2.20;;
72771;SDS011;60894;42.544;1.516;2022-12-18T01:14:54;8.18;;;2.38;;
72771;SDS011;60894;42.544;1.516;2022-12-18T01:17:21;6.60;;;2.38;;
72771;SDS011;60894;42.544;1.516;2022-12-18T01:19:48;7.83;;;2.63;;
72771;SDS011;60894;42.544;1.516;2022-12-18T01:22:15;7.43;;;2.30;;
72771;SDS011;60894;42.544;1.516;2022-12-18T01:24:43;8.77;;;2.30;;
72771;SDS011;60894;42.544;1.516;2022-12-18T01:27:10;8.27;;;2.58;;
72771;SDS011;60894;42.544;1.516;2022-12-18T01:29:37;8.32;;;2.42;;
72771;SDS011;60894;42.544;1.516;2022-12-18T01:32:05;7.63;;;2.67;;
72771;SDS011;60894;42.544;1.516;2022-12-18T01:34:32;7.90;;;2.53;;
72771;SDS011;60894;42.544;1.516;2022-12-18T01:37:02;8.07;;;2.30;;
72771;SDS011;60894;42.544;1.516;2022-12-18T01:39:29;7.93;;;2.10;;
72771;SDS011;60894;42.544;1.516;2022-12-18T01:41:57;8.65;;;2.13;;
72771;SDS011;60894;42.544;1.516;2022-12-18T01:47:26;6.80;;;2.30;;
72771;SDS011;60894;42.544;1.516;2022-12-18T01:49:57;4.75;;;1.70;;
72771;SDS011;60894;42.544;1.516;2022-12-18T01:52:28;6.22;;;1.98;;
72771;SDS011;60894;42.544;1.516;2022-12-18T01:54:57;6.03;;;1.90;;
72771;SDS011;60894;42.544;1.516;2022-12-18T01:57:25;5.53;;;1.90;;
72771;SDS011;60894;42.544;1.516;2022-12-18T01:59:53;6.05;;;1.83;;
72771;SDS011;60894;42.544;1.516;2022-12-18T02:02:28;8.68;;;1.90;;
72771;SDS011;60894;42.544;1.516;2022-12-18T02:04:56;6.45;;;1.83;;
72771;SDS011;60894;42.544;1.516;2022-12-18T02:07:24;5.80;;;1.70;;
72771;SDS011;60894;42.544;1.516;2022-12-18T02:09:59;5.13;;;1.80;;
72771;SDS011;60894;42.544;1.516;2022-12-18T02:12:29;4.55;;;1.48;;
72771;SDS011;60894;42.544;1.516;2022-12-18T02:15:06;6.03;;;1.70;;
72771;SDS011;60894;42.544;1.516;2022-12-18T02:17:39;4.10;;;1.30;;
72771;SDS011;60894;42.544;1.516;2022-12-18T02:20:13;6.28;;;1.80;;
72771;SDS011;60894;42.544;1.516;2022-12-18T02:22:50;5.23;;;1.50;;
72771;SDS011;60894;42.544;1.516;2022-12-18T02:25:40;3.05;;;1.25;;
72771;SDS011;60894;42.544;1.516;2022-12-18T02:28:20;5.57;;;1.60;;
72771;SDS011;60894;42.544;1.516;2022-12-18T02:30:50;4.63;;;1.60;;
72771;SDS011;60894;42.544;1.516;2022-12-18T02:33:23;4.88;;;1.50;;
72771;SDS011;60894;42.544;1.516;2022-12-18T02:35:53;5.63;;;1.80;;
72771;SDS011;60894;42.544;1.516;2022-12-18T02:38:21;6.85;;;1.80;;
72771;SDS011;60894;42.544;1.516;2022-12-18T02:40:51;4.55;;;1.42;;
72771;SDS011;60894;42.544;1.516;2022-12-18T02:43:20;5.22;;;1.50;;
72771;SDS011;60894;42.544;1.516;2022-12-18T02:45:47;3.80;;;1.42;;
72771;SDS011;60894;42.544;1.516;2022-12-18T02:48:17;5.37;;;1.50;;
72771;SDS011;60894;42.544;1.516;2022-12-18T02:50:48;3.60;;;1.20;;
72771;SDS011;60894;42.544;1.516;2022-12-18T02:53:27;4.35;;;1.20;;
72771;SDS011;60894;42.544;1.516;2022-12-18T02:56:02;4.32;;;1.40;;
72771;SDS011;60894;42.544;1.516;2022-12-18T02:58:34;4.72;;;1.10;;
72771;SDS011;60894;42.544;1.516;2022-12-18T03:01:10;4.27;;;1.30;;
72771;SDS011;60894;42.544;1.516;2022-12-18T03:03:43;3.25;;;1.00;;
72771;SDS011;60894;42.544;1.516;2022-12-18T03:06:18;4.05;;;1.20;;
72771;SDS011;60894;42.544;1.516;2022-12-18T03:08:50;4.25;;;1.27;;
72771;SDS011;60894;42.544;1.516;2022-12-18T03:11:24;4.90;;;1.20;;
72771;SDS011;60894;42.544;1.516;2022-12-18T03:14:08;4.20;;;1.30;;
72771;SDS011;60894;42.544;1.516;2022-12-18T03:16:38;4.68;;;1.50;;
72771;SDS011;60894;42.544;1.516;2022-12-18T03:19:08;2.28;;;0.90;;
72771;SDS011;60894;42.544;1.516;2022-12-18T03:21:39;2.30;;;0.82;;
72771;SDS011;60894;42.544;1.516;2022-12-18T03:24:09;5.88;;;1.45;;
72771;SDS011;60894;42.544;1.516;2022-12-18T03:26:40;2.93;;;0.90;;
72771;SDS011;60894;42.544;1.516;2022-12-18T03:29:11;3.17;;;1.00;;
72771;SDS011;60894;42.544;1.516;2022-12-18T03:31:45;3.03;;;1.00;;
72771;SDS011;60894;42.544;1.516;2022-12-18T03:34:20;4.45;;;1.20;;
72771;SDS011;60894;42.544;1.516;2022-12-18T03:36:50;4.70;;;1.23;;
72771;SDS011;60894;42.544;1.516;2022-12-18T03:39:17;2.93;;;0.87;;
72771;SDS011;60894;42.544;1.516;2022-12-18T03:41:48;3.28;;;1.00;;
72771;SDS011;60894;42.544;1.516;2022-12-18T03:44:23;3.75;;;1.20;;
72771;SDS011;60894;42.544;1.516;2022-12-18T03:46:55;4.40;;;1.40;;
72771;SDS011;60894;42.544;1.516;2022-12-18T03:49:30;3.60;;;1.05;;
72771;SDS011;60894;42.544;1.516;2022-12-18T03:52:02;3.57;;;1.10;;
72771;SDS011;60894;42.544;1.516;2022-12-18T03:54:34;5.72;;;1.10;;
72771;SDS011;60894;42.544;1.516;2022-12-18T03:57:04;1.52;;;0.70;;
72771;SDS011;60894;42.544;1.516;2022-12-18T03:59:34;3.40;;;1.02;;
72771;SDS011;60894;42.544;1.516;2022-12-18T04:02:03;4.75;;;1.25;;
72771;SDS011;60894;42.544;1.516;2022-12-18T04:04:33;2.30;;;0.87;;
72771;SDS011;60894;42.544;1.516;2022-12-18T04:07:02;3.00;;;1.00;;
72771;SDS011;60894;42.544;1.516;2022-12-18T04:09:29;5.65;;;1.60;;
72771;SDS011;60894;42.544;1.516;2022-12-18T04:11:58;4.05;;;1.00;;
72771;SDS011;60894;42.544;1.516;2022-12-18T04:14:26;2.42;;;0.85;;
72771;SDS011;60894;42.544;1.516;2022-12-18T04:16:53;3.33;;;1.00;;
72771;SDS011;60894;42.544;1.516;2022-12-18T04:19:20;4.68;;;1.02;;
72771;SDS011;60894;42.544;1.516;2022-12-18T04:21:47;4.32;;;1.02;;
72771;SDS011;60894;42.544;1.516;2022-12-18T04:24:14;2.10;;;0.90;;
72771;SDS011;60894;42.544;1.516;2022-12-18T04:26:41;3.88;;;0.90;;
72771;SDS011;60894;42.544;1.516;2022-12-18T04:29:08;2.47;;;0.67;;
72771;SDS011;60894;42.544;1.516;2022-12-18T04:31:37;3.13;;;0.82;;
72771;SDS011;60894;42.544;1.516;2022-12-18T04:34:04;3.85;;;1.00;;
72771;SDS011;60894;42.544;1.516;2022-12-18T04:36:31;4.57;;;1.65;;
72771;SDS011;60894;42.544;1.516;2022-12-18T04:38:58;4.18;;;1.35;;
72771;SDS011;60894;42.544;1.516;2022-12-18T04:41:25;3.80;;;1.17;;
72771;SDS011;60894;42.544;1.516;2022-12-18T04:43:52;2.53;;;0.80;;
72771;SDS011;60894;42.544;1.516;2022-12-18T04:46:19;2.35;;;0.80;;
72771;SDS011;60894;42.544;1.516;2022-12-18T04:48:48;2.40;;;0.70;;
72771;SDS011;60894;42.544;1.516;2022-12-18T04:51:15;2.00;;;0.60;;
72771;SDS011;60894;42.544;1.516;2022-12-18T04:53:42;3.90;;;1.00;;
72771;SDS011;60894;42.544;1.516;2022-12-18T04:56:10;2.53;;;0.80;;
72771;SDS011;60894;42.544;1.516;2022-12-18T04:58:39;2.08;;;0.65;;
72771;SDS011;60894;42.544;1.516;2022-12-18T05:01:07;3.13;;;0.80;;
72771;SDS011;60894;42.544;1.516;2022-12-18T05:03:34;3.97;;;1.10;;
72771;SDS011;60894;42.544;1.516;2022-12-18T05:06:04;2.50;;;0.70;;
72771;SDS011;60894;42.544;1.516;2022-12-18T05:08:31;2.08;;;0.70;;
72771;SDS011;60894;42.544;1.516;2022-12-18T05:10:59;5.60;;;1.10;;
72771;SDS011;60894;42.544;1.516;2022-12-18T05:13:26;3.50;;;0.98;;
72771;SDS011;60894;42.544;1.516;2022-12-18T05:15:54;3.03;;;0.80;;
72771;SDS011;60894;42.544;1.516;2022-12-18T05:18:21;2.97;;;0.80;;
72771;SDS011;60894;42.544;1.516;2022-12-18T05:20:49;2.55;;;0.60;;
72771;SDS011;60894;42.544;1.516;2022-12-18T05:23:18;6.93;;;1.00;;
72771;SDS011;60894;42.544;1.516;2022-12-18T05:25:46;3.05;;;0.90;;
72771;SDS011;60894;42.544;1.516;2022-12-18T05:28:16;3.22;;;0.80;;
72771;SDS011;60894;42.544;1.516;2022-12-18T05:30:46;2.87;;;0.80;;
72771;SDS011;60894;42.544;1.516;2022-12-18T05:33:14;2.55;;;0.70;;
72771;SDS011;60894;42.544;1.516;2022-12-18T05:35:42;2.00;;;0.57;;
72771;SDS011;60894;42.544;1.516;2022-12-18T05:38:09;2.65;;;0.70;;
72771;SDS011;60894;42.544;1.516;2022-12-18T05:40:40;2.60;;;0.55;;
72771;SDS011;60894;42.544;1.516;2022-12-18T05:43:08;3.53;;;0.63;;
72771;SDS011;60894;42.544;1.516;2022-12-18T05:45:36;2.78;;;0.85;;
72771;SDS011;60894;42.544;1.516;2022-12-18T05:48:03;2.22;;;0.75;;
72771;SDS011;60894;42.544;1.516;2022-12-18T05:50:33;3.53;;;0.80;;
72771;SDS011;60894;42.544;1.516;2022-12-18T05:53:00;2.67;;;0.75;;
72771;SDS011;60894;42.544;1.516;2022-12-18T05:55:27;3.97;;;1.20;;
72771;SDS011;60894;42.544;1.516;2022-12-18T05:57:56;2.00;;;0.88;;
72771;SDS011;60894;42.544;1.516;2022-12-18T06:00:23;2.67;;;0.90;;
72771;SDS011;60894;42.544;1.516;2022-12-18T06:02:50;2.42;;;0.90;;
72771;SDS011;60894;42.544;1.516;2022-12-18T06:05:17;1.73;;;0.50;;
72771;SDS011;60894;42.544;1.516;2022-12-18T06:07:44;3.33;;;1.10;;
72771;SDS011;60894;42.544;1.516;2022-12-18T06:10:11;4.07;;;1.20;;
72771;SDS011;60894;42.544;1.516;2022-12-18T06:12:38;2.13;;;0.80;;
72771;SDS011;60894;42.544;1.516;2022-12-18T06:15:07;1.75;;;0.80;;
72771;SDS011;60894;42.544;1.516;2022-12-18T06:17:35;1.40;;;0.50;;
72771;SDS011;60894;42.544;1.516;2022-12-18T06:20:02;3.33;;;0.80;;
72771;SDS011;60894;42.544;1.516;2022-12-18T06:22:32;1.50;;;0.60;;
72771;SDS011;60894;42.544;1.516;2022-12-18T06:25:00;1.67;;;0.47;;
72771;SDS011;60894;42.544;1.516;2022-12-18T06:27:27;1.50;;;0.70;;
72771;SDS011;60894;42.544;1.516;2022-12-18T06:29:54;3.70;;;1.00;;
72771;SDS011;60894;42.544;1.516;2022-12-18T06:32:22;5.77;;;1.33;;
72771;SDS011;60894;42.544;1.516;2022-12-18T06:34:49;4.07;;;1.30;;
72771;SDS011;60894;42.544;1.516;2022-12-18T06:37:16;4.32;;;1.10;;
72771;SDS011;60894;42.544;1.516;2022-12-18T06:39:43;3.63;;;1.08;;
72771;SDS011;60894;42.544;1.516;2022-12-18T06:42:10;3.72;;;1.20;;
72771;SDS011;60894;42.544;1.516;2022-12-18T06:44:38;3.23;;;0.90;;
72771;SDS011;60894;42.544;1.516;2022-12-18T06:47:05;2.95;;;0.90;;
72771;SDS011;60894;42.544;1.516;2022-12-18T06:49:33;2.30;;;0.70;;
72771;SDS011;60894;42.544;1.516;2022-12-18T06:52:00;3.30;;;1.10;;
72771;SDS011;60894;42.544;1.516;2022-12-18T06:54:27;2.92;;;0.88;;
72771;SDS011;60894;42.544;1.516;2022-12-18T06:56:54;3.97;;;1.00;;
72771;SDS011;60894;42.544;1.516;2022-12-18T06:59:23;4.80;;;1.20;;
72771;SDS011;60894;42.544;1.516;2022-12-18T07:01:50;5.68;;;1.58;;
72771;SDS011;60894;42.544;1.516;2022-12-18T07:04:17;5.78;;;1.52;;
72771;SDS011;60894;42.544;1.516;2022-12-18T07:06:45;5.03;;;1.20;;
72771;SDS011;60894;42.544;1.516;2022-12-18T07:09:12;3.50;;;1.20;;
72771;SDS011;60894;42.544;1.516;2022-12-18T07:11:39;4.38;;;1.10;;
72771;SDS011;60894;42.544;1.516;2022-12-18T07:14:06;3.55;;;0.93;;
72771;SDS011;60894;42.544;1.516;2022-12-18T07:16:33;3.50;;;1.20;;
72771;SDS011;60894;42.544;1.516;2022-12-18T07:19:00;3.88;;;1.02;;
72771;SDS011;60894;42.544;1.516;2022-12-18T07:21:27;3.43;;;0.83;;
72771;SDS011;60894;42.544;1.516;2022-12-18T07:23:56;2.90;;;0.90;;
72771;SDS011;60894;42.544;1.516;2022-12-18T07:26:23;2.63;;;0.93;;
72771;SDS011;60894;42.544;1.516;2022-12-18T07:28:54;3.13;;;1.00;;
72771;SDS011;60894;42.544;1.516;2022-12-18T07:31:22;4.50;;;1.10;;
72771;SDS011;60894;42.544;1.516;2022-12-18T07:33:50;2.57;;;1.00;;
72771;SDS011;60894;42.544;1.516;2022-12-18T07:36:18;2.88;;;0.98;;
72771;SDS011;60894;42.544;1.516;2022-12-18T07:38:46;2.00;;;0.80;;
72771;SDS011;60894;42.544;1.516;2022-12-18T07:41:15;4.63;;;0.93;;
72771;SDS011;60894;42.544;1.516;2022-12-18T07:43:43;3.40;;;1.20;;
72771;SDS011;60894;42.544;1.516;2022-12-18T07:46:10;5.00;;;1.50;;
72771;SDS011;60894;42.544;1.516;2022-12-18T07:48:39;1.65;;;0.95;;
72771;SDS011;60894;42.544;1.516;2022-12-18T07:51:07;5.45;;;1.17;;
72771;SDS011;60894;42.544;1.516;2022-12-18T07:53:35;2.83;;;1.10;;
72771;SDS011;60894;42.544;1.516;2022-12-18T07:56:04;3.13;;;1.08;;
72771;SDS011;60894;42.544;1.516;2022-12-18T07:58:34;2.80;;;1.13;;
72771;SDS011;60894;42.544;1.516;2022-12-18T08:01:02;2.90;;;1.00;;
72771;SDS011;60894;42.544;1.516;2022-12-18T08:03:30;2.65;;;0.85;;
72771;SDS011;60894;42.544;1.516;2022-12-18T08:05:58;3.17;;;1.05;;
72771;SDS011;60894;42.544;1.516;2022-12-18T08:08:26;3.90;;;1.30;;
72771;SDS011;60894;42.544;1.516;2022-12-18T08:10:53;2.60;;;1.00;;
72771;SDS011;60894;42.544;1.516;2022-12-18T08:13:20;5.50;;;1.00;;
72771;SDS011;60894;42.544;1.516;2022-12-18T08:15:56;3.00;;;1.13;;
72771;SDS011;60894;42.544;1.516;2022-12-18T08:18:23;3.95;;;1.20;;
72771;SDS011;60894;42.544;1.516;2022-12-18T08:20:51;3.72;;;1.20;;
72771;SDS011;60894;42.544;1.516;2022-12-18T08:23:18;3.73;;;1.10;;
72771;SDS011;60894;42.544;1.516;2022-12-18T08:25:45;3.53;;;1.05;;
72771;SDS011;60894;42.544;1.516;2022-12-18T08:28:12;2.80;;;1.00;;
72771;SDS011;60894;42.544;1.516;2022-12-18T08:30:39;2.72;;;1.15;;
72771;SDS011;60894;42.544;1.516;2022-12-18T08:33:09;3.95;;;1.42;;
72771;SDS011;60894;42.544;1.516;2022-12-18T08:35:36;3.33;;;1.40;;
72771;SDS011;60894;42.544;1.516;2022-12-18T08:38:03;3.28;;;1.23;;
72771;SDS011;60894;42.544;1.516;2022-12-18T08:40:30;4.25;;;1.15;;
72771;SDS011;60894;42.544;1.516;2022-12-18T08:42:57;3.17;;;1.30;;
72771;SDS011;60894;42.544;1.516;2022-12-18T08:45:42;3.42;;;1.20;;
72771;SDS011;60894;42.544;1.516;2022-12-18T08:48:10;3.53;;;1.00;;
72771;SDS011;60894;42.544;1.516;2022-12-18T08:50:37;3.78;;;1.10;;
72771;SDS011;60894;42.544;1.516;2022-12-18T08:53:04;3.67;;;1.25;;
72771;SDS011;60894;42.544;1.516;2022-12-18T08:55:31;4.00;;;1.38;;
72771;SDS011;60894;42.544;1.516;2022-12-18T08:57:58;4.57;;;1.50;;
72771;SDS011;60894;42.544;1.516;2022-12-18T09:00:25;5.20;;;1.60;;
72771;SDS011;60894;42.544;1.516;2022-12-18T09:02:53;4.50;;;1.70;;
72771;SDS011;60894;42.544;1.516;2022-12-18T09:05:21;4.35;;;1.60;;
72771;SDS011;60894;42.544;1.516;2022-12-18T09:07:48;3.75;;;1.58;;
72771;SDS011;60894;42.544;1.516;2022-12-18T09:10:15;5.72;;;1.80;;
72771;SDS011;60894;42.544;1.516;2022-12-18T09:12:42;5.47;;;1.90;;
72771;SDS011;60894;42.544;1.516;2022-12-18T09:15:09;4.40;;;1.83;;
72771;SDS011;60894;42.544;1.516;2022-12-18T09:17:36;4.95;;;2.05;;
72771;SDS011;60894;42.544;1.516;2022-12-18T09:20:04;7.35;;;2.38;;
72771;SDS011;60894;42.544;1.516;2022-12-18T09:22:33;8.25;;;2.70;;
72771;SDS011;60894;42.544;1.516;2022-12-18T09:25:00;7.70;;;3.03;;
72771;SDS011;60894;42.544;1.516;2022-12-18T09:27:27;8.00;;;2.72;;
72771;SDS011;60894;42.544;1.516;2022-12-18T09:29:54;8.75;;;2.80;;
72771;SDS011;60894;42.544;1.516;2022-12-18T09:32:21;12.40;;;3.00;;
72771;SDS011;60894;42.544;1.516;2022-12-18T09:34:48;9.32;;;3.00;;
72771;SDS011;60894;42.544;1.516;2022-12-18T09:37:15;8.50;;;2.93;;
72771;SDS011;60894;42.544;1.516;2022-12-18T09:39:44;11.60;;;4.03;;
72771;SDS011;60894;42.544;1.516;2022-12-18T09:42:11;7.63;;;2.97;;
72771;SDS011;60894;42.544;1.516;2022-12-18T09:44:44;9.18;;;3.30;;
72771;SDS011;60894;42.544;1.516;2022-12-18T09:47:16;11.70;;;3.38;;
72771;SDS011;60894;42.544;1.516;2022-12-18T09:49:47;10.33;;;3.23;;
72771;SDS011;60894;42.544;1.516;2022-12-18T09:52:18;7.72;;;2.78;;
72771;SDS011;60894;42.544;1.516;2022-12-18T09:54:52;9.15;;;2.58;;
72771;SDS011;60894;42.544;1.516;2022-12-18T09:57:23;6.45;;;2.40;;
72771;SDS011;60894;42.544;1.516;2022-12-18T09:59:52;6.63;;;2.28;;
72771;SDS011;60894;42.544;1.516;2022-12-18T10:02:23;9.20;;;2.80;;
72771;SDS011;60894;42.544;1.516;2022-12-18T10:05:00;8.40;;;3.28;;
72771;SDS011;60894;42.544;1.516;2022-12-18T10:07:33;10.00;;;2.90;;
72771;SDS011;60894;42.544;1.516;2022-12-18T10:10:16;6.75;;;2.42;;
72771;SDS011;60894;42.544;1.516;2022-12-18T10:12:55;8.18;;;2.33;;
72771;SDS011;60894;42.544;1.516;2022-12-18T10:15:28;7.83;;;1.90;;
72771;SDS011;60894;42.544;1.516;2022-12-18T10:18:05;6.70;;;2.13;;
72771;SDS011;60894;42.544;1.516;2022-12-18T10:20:45;9.27;;;2.15;;
72771;SDS011;60894;42.544;1.516;2022-12-18T10:23:16;9.32;;;2.25;;
72771;SDS011;60894;42.544;1.516;2022-12-18T10:25:51;5.75;;;1.65;;
72771;SDS011;60894;42.544;1.516;2022-12-18T10:28:23;5.27;;;1.30;;
72771;SDS011;60894;42.544;1.516;2022-12-18T10:30:51;4.10;;;1.60;;
72771;SDS011;60894;42.544;1.516;2022-12-18T10:33:19;5.28;;;1.88;;
72771;SDS011;60894;42.544;1.516;2022-12-18T10:35:48;3.50;;;1.30;;
72771;SDS011;60894;42.544;1.516;2022-12-18T10:38:22;4.75;;;1.38;;
72771;SDS011;60894;42.544;1.516;2022-12-18T10:40:53;4.37;;;1.93;;
72771;SDS011;60894;42.544;1.516;2022-12-18T10:43:22;4.07;;;1.50;;
72771;SDS011;60894;42.544;1.516;2022-12-18T10:45:58;4.10;;;1.35;;
72771;SDS011;60894;42.544;1.516;2022-12-18T10:48:32;4.93;;;1.60;;
72771;SDS011;60894;42.544;1.516;2022-12-18T10:51:01;5.55;;;1.60;;
72771;SDS011;60894;42.544;1.516;2022-12-18T10:53:29;5.97;;;1.77;;
72771;SDS011;60894;42.544;1.516;2022-12-18T10:55:59;6.80;;;1.63;;
72771;SDS011;60894;42.544;1.516;2022-12-18T10:58:28;4.18;;;1.60;;
72771;SDS011;60894;42.544;1.516;2022-12-18T11:01:04;7.28;;;1.80;;
72771;SDS011;60894;42.544;1.516;2022-12-18T11:03:33;10.70;;;2.78;;
72771;SDS011;60894;42.544;1.516;2022-12-18T11:06:04;9.40;;;3.10;;
72771;SDS011;60894;42.544;1.516;2022-12-18T11:08:32;9.65;;;3.08;;
72771;SDS011;60894;42.544;1.516;2022-12-18T11:11:01;7.53;;;2.40;;
72771;SDS011;60894;42.544;1.516;2022-12-18T11:13:29;9.57;;;2.92;;
72771;SDS011;60894;42.544;1.516;2022-12-18T11:15:57;6.78;;;2.33;;
72771;SDS011;60894;42.544;1.516;2022-12-18T11:18:26;9.40;;;2.30;;
72771;SDS011;60894;42.544;1.516;2022-12-18T11:20:55;7.03;;;2.25;;
72771;SDS011;60894;42.544;1.516;2022-12-18T11:23:25;8.70;;;2.42;;
72771;SDS011;60894;42.544;1.516;2022-12-18T11:25:54;6.35;;;1.98;;
72771;SDS011;60894;42.544;1.516;2022-12-18T11:28:28;6.18;;;1.95;;
72771;SDS011;60894;42.544;1.516;2022-12-18T11:31:17;4.83;;;1.30;;
72771;SDS011;60894;42.544;1.516;2022-12-18T11:33:50;5.63;;;1.30;;
72771;SDS011;60894;42.544;1.516;2022-12-18T11:36:32;8.38;;;1.42;;
72771;SDS011;60894;42.544;1.516;2022-12-18T11:39:05;5.38;;;1.30;;
72771;SDS011;60894;42.544;1.516;2022-12-18T11:41:39;4.72;;;1.70;;
72771;SDS011;60894;42.544;1.516;2022-12-18T11:44:31;6.97;;;1.90;;
72771;SDS011;60894;42.544;1.516;2022-12-18T11:47:05;8.05;;;2.28;;
72771;SDS011;60894;42.544;1.516;2022-12-18T11:49:40;5.13;;;1.67;;
72771;SDS011;60894;42.544;1.516;2022-12-18T11:52:09;15.02;;;4.97;;
72771;SDS011;60894;42.544;1.516;2022-12-18T11:54:41;16.17;;;4.25;;
72771;SDS011;60894;42.544;1.516;2022-12-18T11:57:11;8.77;;;2.93;;
72771;SDS011;60894;42.544;1.516;2022-12-18T11:59:51;4.65;;;1.77;;
72771;SDS011;60894;42.544;1.516;2022-12-18T12:02:34;5.38;;;2.20;;
72771;SDS011;60894;42.544;1.516;2022-12-18T12:08:05;4.93;;;1.70;;
72771;SDS011;60894;42.544;1.516;2022-12-18T12:10:41;9.90;;;2.60;;
72771;SDS011;60894;42.544;1.516;2022-12-18T12:13:21;5.82;;;1.30;;
72771;SDS011;60894;42.544;1.516;2022-12-18T12:16:01;10.52;;;3.55;;
72771;SDS011;60894;42.544;1.516;2022-12-18T12:18:40;6.70;;;2.20;;
72771;SDS011;60894;42.544;1.516;2022-12-18T12:21:17;10.90;;;3.75;;
72771;SDS011;60894;42.544;1.516;2022-12-18T12:23:51;8.13;;;3.60;;
72771;SDS011;60894;42.544;1.516;2022-12-18T12:26:27;11.63;;;4.22;;
72771;SDS011;60894;42.544;1.516;2022-12-18T12:29:01;7.65;;;2.60;;
72771;SDS011;60894;42.544;1.516;2022-12-18T12:31:47;3.30;;;0.80;;
72771;SDS011;60894;42.544;1.516;2022-12-18T12:34:30;6.25;;;2.08;;
72771;SDS011;60894;42.544;1.516;2022-12-18T12:37:10;2.87;;;1.10;;
72771;SDS011;60894;42.544;1.516;2022-12-18T12:39:47;8.77;;;2.80;;
72771;SDS011;60894;42.544;1.516;2022-12-18T12:42:16;3.05;;;1.17;;
72771;SDS011;60894;42.544;1.516;2022-12-18T12:45:00;7.70;;;2.17;;
72771;SDS011;60894;42.544;1.516;2022-12-18T12:47:33;3.75;;;1.30;;
72771;SDS011;60894;42.544;1.516;2022-12-18T12:50:05;3.77;;;1.17;;
72771;SDS011;60894;42.544;1.516;2022-12-18T12:52:40;4.70;;;1.45;;
72771;SDS011;60894;42.544;1.516;2022-12-18T12:55:13;2.72;;;1.40;;
72771;SDS011;60894;42.544;1.516;2022-12-18T12:57:43;2.33;;;1.05;;
72771;SDS011;60894;42.544;1.516;2022-12-18T13:00:17;3.10;;;1.25;;
72771;SDS011;60894;42.544;1.516;2022-12-18T13:02:49;6.30;;;2.13;;
72771;SDS011;60894;42.544;1.516;2022-12-18T13:05:23;2.63;;;1.42;;
72771;SDS011;60894;42.544;1.516;2022-12-18T13:07:56;3.55;;;1.10;;
72771;SDS011;60894;42.544;1.516;2022-12-18T13:10:35;2.85;;;0.95;;
72771;SDS011;60894;42.544;1.516;2022-12-18T13:13:03;4.32;;;1.70;;
72771;SDS011;60894;42.544;1.516;2022-12-18T13:15:33;6.23;;;2.10;;
72771;SDS011;60894;42.544;1.516;2022-12-18T13:18:16;6.53;;;2.65;;
72771;SDS011;60894;42.544;1.516;2022-12-18T13:20:46;8.45;;;4.20;;
72771;SDS011;60894;42.544;1.516;2022-12-18T13:23:31;13.07;;;5.15;;
72771;SDS011;60894;42.544;1.516;2022-12-18T13:28:57;6.40;;;2.57;;
72771;SDS011;60894;42.544;1.516;2022-12-18T13:34:31;7.07;;;2.88;;
72771;SDS011;60894;42.544;1.516;2022-12-18T13:39:59;8.80;;;3.15;;
72771;SDS011;60894;42.544;1.516;2022-12-18T13:42:37;10.43;;;4.33;;
72771;SDS011;60894;42.544;1.516;2022-12-18T13:45:39;5.85;;;2.17;;
72771;SDS011;60894;42.544;1.516;2022-12-18T13:48:15;12.45;;;5.25;;
72771;SDS011;60894;42.544;1.516;2022-12-18T13:50:49;20.48;;;7.70;;
72771;SDS011;60894;42.544;1.516;2022-12-18T13:53:20;13.20;;;5.22;;
72771;SDS011;60894;42.544;1.516;2022-12-18T13:55:50;7.43;;;3.00;;
72771;SDS011;60894;42.544;1.516;2022-12-18T13:58:18;20.77;;;8.90;;
72771;SDS011;60894;42.544;1.516;2022-12-18T14:00:45;11.32;;;5.07;;
72771;SDS011;60894;42.544;1.516;2022-12-18T14:03:16;11.75;;;5.07;;
72771;SDS011;60894;42.544;1.516;2022-12-18T14:05:45;10.43;;;4.32;;
72771;SDS011;60894;42.544;1.516;2022-12-18T14:08:20;13.00;;;5.10;;
72771;SDS011;60894;42.544;1.516;2022-12-18T14:10:47;13.45;;;4.38;;
72771;SDS011;60894;42.544;1.516;2022-12-18T14:13:17;14.00;;;5.75;;
72771;SDS011;60894;42.544;1.516;2022-12-18T14:15:48;7.90;;;3.53;;
72771;SDS011;60894;42.544;1.516;2022-12-18T14:18:19;12.05;;;5.50;;
72771;SDS011;60894;42.544;1.516;2022-12-18T14:20:48;15.27;;;7.40;;
72771;SDS011;60894;42.544;1.516;2022-12-18T14:23:27;13.13;;;5.50;;
72771;SDS011;60894;42.544;1.516;2022-12-18T14:25:56;10.75;;;5.50;;
72771;SDS011;60894;42.544;1.516;2022-12-18T14:28:24;10.45;;;3.75;;
72771;SDS011;60894;42.544;1.516;2022-12-18T14:30:52;7.30;;;2.92;;
72771;SDS011;60894;42.544;1.516;2022-12-18T14:33:21;12.17;;;5.73;;
72771;SDS011;60894;42.544;1.516;2022-12-18T14:35:53;9.30;;;4.40;;
72771;SDS011;60894;42.544;1.516;2022-12-18T14:38:23;8.35;;;2.60;;
72771;SDS011;60894;42.544;1.516;2022-12-18T14:40:54;11.95;;;4.30;;
72771;SDS011;60894;42.544;1.516;2022-12-18T14:43:22;7.63;;;3.28;;
72771;SDS011;60894;42.544;1.516;2022-12-18T14:45:49;7.47;;;3.33;;
72771;SDS011;60894;42.544;1.516;2022-12-18T14:48:17;14.43;;;6.80;;
72771;SDS011;60894;42.544;1.516;2022-12-18T14:50:54;15.55;;;5.90;;
72771;SDS011;60894;42.544;1.516;2022-12-18T14:53:23;8.90;;;3.55;;
72771;SDS011;60894;42.544;1.516;2022-12-18T14:56:00;12.52;;;4.07;;
72771;SDS011;60894;42.544;1.516;2022-12-18T14:58:27;9.97;;;4.70;;
72771;SDS011;60894;42.544;1.516;2022-12-18T15:00:55;10.85;;;5.13;;
72771;SDS011;60894;42.544;1.516;2022-12-18T15:03:22;49.97;;;19.90;;
72771;SDS011;60894;42.544;1.516;2022-12-18T15:05:49;13.40;;;6.78;;
72771;SDS011;60894;42.544;1.516;2022-12-18T15:08:29;10.77;;;4.80;;
72771;SDS011;60894;42.544;1.516;2022-12-18T15:11:02;13.63;;;6.17;;
72771;SDS011;60894;42.544;1.516;2022-12-18T15:13:29;27.45;;;10.68;;
72771;SDS011;60894;42.544;1.516;2022-12-18T15:15:56;26.35;;;11.02;;
72771;SDS011;60894;42.544;1.516;2022-12-18T15:18:29;22.70;;;13.73;;